sensor_id;sensor_type;location;lat;lon;timestamp;P1;durP1;ratioP1;P2;durP2;ratioP2
22160;SDS011;49035;48.812;11.762;2023-08-17T00:00:06;16.92;;;13.45;;
22160;SDS011;49035;48.812;11.762;2023-08-17T00:02:38;18.65;;;14.25;;
22160;SDS011;49035;48.812;11.762;2023-08-17T00:05:04;20.05;;;14.00;;
22160;SDS011;49035;48.812;11.762;2023-08-17T00:07:31;18.17;;;13.50;;
22160;SDS011;49035;48.812;11.762;2023-08-17T00:09:57;19.70;;;13.27;;
22160;SDS011;49035;48.812;11.762;2023-08-17T00:12:22;20.13;;;12.32;;
22160;SDS011;49035;48.812;11.762;2023-08-17T00:14:48;16.73;;;12.13;;
22160;SDS011;49035;48.812;11.762;2023-08-17T00:17:14;25.73;;;12.55;;
22160;SDS011;49035;48.812;11.762;2023-08-17T00:19:40;18.63;;;12.48;;
22160;SDS011;49035;48.812;11.762;2023-08-17T00:22:06;17.85;;;12.57;;
22160;SDS011;49035;48.812;11.762;2023-08-17T00:24:31;18.30;;;13.93;;
22160;SDS011;49035;48.812;11.762;2023-08-17T00:26:57;19.33;;;13.50;;
22160;SDS011;49035;48.812;11.762;2023-08-17T00:29:22;16.83;;;12.82;;
22160;SDS011;49035;48.812;11.762;2023-08-17T00:31:48;22.48;;;14.70;;
22160;SDS011;49035;48.812;11.762;2023-08-17T00:34:14;19.73;;;14.95;;
22160;SDS011;49035;48.812;11.762;2023-08-17T00:36:39;21.58;;;14.93;;
22160;SDS011;49035;48.812;11.762;2023-08-17T00:39:05;21.80;;;17.50;;
22160;SDS011;49035;48.812;11.762;2023-08-17T00:41:30;25.63;;;17.25;;
22160;SDS011;49035;48.812;11.762;2023-08-17T00:43:56;25.05;;;17.70;;
22160;SDS011;49035;48.812;11.762;2023-08-17T00:46:22;28.63;;;17.73;;
22160;SDS011;49035;48.812;11.762;2023-08-17T00:48:48;22.48;;;16.52;;
22160;SDS011;49035;48.812;11.762;2023-08-17T00:51:14;25.25;;;17.55;;
22160;SDS011;49035;48.812;11.762;2023-08-17T00:53:40;22.45;;;16.65;;
22160;SDS011;49035;48.812;11.762;2023-08-17T00:56:07;19.95;;;14.07;;
22160;SDS011;49035;48.812;11.762;2023-08-17T00:58:33;24.58;;;16.08;;
22160;SDS011;49035;48.812;11.762;2023-08-17T01:00:59;21.25;;;15.57;;
22160;SDS011;49035;48.812;11.762;2023-08-17T01:03:24;21.15;;;16.48;;
22160;SDS011;49035;48.812;11.762;2023-08-17T01:05:54;23.10;;;15.73;;
22160;SDS011;49035;48.812;11.762;2023-08-17T01:08:21;16.88;;;14.50;;
22160;SDS011;49035;48.812;11.762;2023-08-17T01:16:31;20.25;;;14.70;;
22160;SDS011;49035;48.812;11.762;2023-08-17T01:19:03;16.30;;;13.30;;
22160;SDS011;49035;48.812;11.762;2023-08-17T01:21:37;19.50;;;14.65;;
22160;SDS011;49035;48.812;11.762;2023-08-17T01:24:13;20.65;;;13.93;;
22160;SDS011;49035;48.812;11.762;2023-08-17T01:26:39;16.48;;;13.07;;
22160;SDS011;49035;48.812;11.762;2023-08-17T01:29:05;23.83;;;15.05;;
22160;SDS011;49035;48.812;11.762;2023-08-17T01:31:36;28.52;;;18.17;;
22160;SDS011;49035;48.812;11.762;2023-08-17T01:34:14;22.73;;;16.13;;
22160;SDS011;49035;48.812;11.762;2023-08-17T01:36:45;19.45;;;14.90;;
22160;SDS011;49035;48.812;11.762;2023-08-17T01:39:15;18.23;;;14.88;;
22160;SDS011;49035;48.812;11.762;2023-08-17T01:41:42;21.38;;;15.55;;
22160;SDS011;49035;48.812;11.762;2023-08-17T01:44:10;19.88;;;16.77;;
22160;SDS011;49035;48.812;11.762;2023-08-17T01:46:35;26.02;;;16.25;;
22160;SDS011;49035;48.812;11.762;2023-08-17T01:49:02;25.48;;;17.02;;
22160;SDS011;49035;48.812;11.762;2023-08-17T01:51:27;22.38;;;16.02;;
22160;SDS011;49035;48.812;11.762;2023-08-17T01:53:53;25.15;;;15.88;;
22160;SDS011;49035;48.812;11.762;2023-08-17T01:56:18;24.73;;;16.67;;
22160;SDS011;49035;48.812;11.762;2023-08-17T01:58:44;21.98;;;15.75;;
22160;SDS011;49035;48.812;11.762;2023-08-17T02:01:10;21.42;;;16.00;;
22160;SDS011;49035;48.812;11.762;2023-08-17T02:03:35;22.80;;;17.17;;
22160;SDS011;49035;48.812;11.762;2023-08-17T02:06:01;25.67;;;15.48;;
22160;SDS011;49035;48.812;11.762;2023-08-17T02:08:26;23.63;;;14.90;;
22160;SDS011;49035;48.812;11.762;2023-08-17T02:10:52;18.00;;;14.52;;
22160;SDS011;49035;48.812;11.762;2023-08-17T02:13:18;22.33;;;15.68;;
22160;SDS011;49035;48.812;11.762;2023-08-17T02:15:44;24.42;;;15.02;;
22160;SDS011;49035;48.812;11.762;2023-08-17T02:18:11;21.10;;;14.52;;
22160;SDS011;49035;48.812;11.762;2023-08-17T02:20:36;20.55;;;14.07;;
22160;SDS011;49035;48.812;11.762;2023-08-17T02:23:02;18.35;;;14.98;;
22160;SDS011;49035;48.812;11.762;2023-08-17T02:25:27;21.08;;;15.20;;
22160;SDS011;49035;48.812;11.762;2023-08-17T02:28:00;21.23;;;14.43;;
22160;SDS011;49035;48.812;11.762;2023-08-17T02:30:26;20.25;;;14.40;;
22160;SDS011;49035;48.812;11.762;2023-08-17T02:32:52;18.00;;;14.23;;
22160;SDS011;49035;48.812;11.762;2023-08-17T02:35:17;20.40;;;13.35;;
22160;SDS011;49035;48.812;11.762;2023-08-17T02:37:43;17.70;;;13.57;;
22160;SDS011;49035;48.812;11.762;2023-08-17T02:40:09;15.27;;;12.40;;
22160;SDS011;49035;48.812;11.762;2023-08-17T02:42:35;17.23;;;12.90;;
22160;SDS011;49035;48.812;11.762;2023-08-17T02:45:00;21.67;;;14.25;;
22160;SDS011;49035;48.812;11.762;2023-08-17T02:47:26;19.42;;;14.40;;
22160;SDS011;49035;48.812;11.762;2023-08-17T02:49:51;20.20;;;12.82;;
22160;SDS011;49035;48.812;11.762;2023-08-17T02:52:17;16.75;;;13.15;;
22160;SDS011;49035;48.812;11.762;2023-08-17T02:54:42;15.80;;;12.77;;
22160;SDS011;49035;48.812;11.762;2023-08-17T02:57:08;14.65;;;12.00;;
22160;SDS011;49035;48.812;11.762;2023-08-17T02:59:33;12.77;;;11.18;;
22160;SDS011;49035;48.812;11.762;2023-08-17T03:01:59;16.15;;;12.93;;
22160;SDS011;49035;48.812;11.762;2023-08-17T03:04:25;14.68;;;12.10;;
22160;SDS011;49035;48.812;11.762;2023-08-17T03:06:50;13.70;;;11.30;;
22160;SDS011;49035;48.812;11.762;2023-08-17T03:09:16;13.90;;;11.70;;
22160;SDS011;49035;48.812;11.762;2023-08-17T03:11:41;16.17;;;11.80;;
22160;SDS011;49035;48.812;11.762;2023-08-17T03:14:07;69.20;;;13.10;;
22160;SDS011;49035;48.812;11.762;2023-08-17T03:16:32;21.85;;;14.27;;
22160;SDS011;49035;48.812;11.762;2023-08-17T03:18:58;14.77;;;12.40;;
22160;SDS011;49035;48.812;11.762;2023-08-17T03:21:24;44.53;;;15.68;;
22160;SDS011;49035;48.812;11.762;2023-08-17T03:23:49;17.42;;;13.50;;
22160;SDS011;49035;48.812;11.762;2023-08-17T03:26:15;25.13;;;13.15;;
22160;SDS011;49035;48.812;11.762;2023-08-17T03:28:41;87.32;;;14.90;;
22160;SDS011;49035;48.812;11.762;2023-08-17T03:31:07;18.75;;;12.25;;
22160;SDS011;49035;48.812;11.762;2023-08-17T03:33:36;401.60;;;24.77;;
22160;SDS011;49035;48.812;11.762;2023-08-17T03:36:02;15.30;;;11.13;;
22160;SDS011;49035;48.812;11.762;2023-08-17T03:38:28;15.27;;;12.45;;
22160;SDS011;49035;48.812;11.762;2023-08-17T03:40:54;14.75;;;11.88;;
22160;SDS011;49035;48.812;11.762;2023-08-17T03:43:20;19.10;;;12.98;;
22160;SDS011;49035;48.812;11.762;2023-08-17T03:45:45;21.52;;;15.10;;
22160;SDS011;49035;48.812;11.762;2023-08-17T03:48:11;16.08;;;12.82;;
22160;SDS011;49035;48.812;11.762;2023-08-17T03:50:37;22.17;;;13.38;;
22160;SDS011;49035;48.812;11.762;2023-08-17T03:53:02;16.30;;;13.18;;
22160;SDS011;49035;48.812;11.762;2023-08-17T03:55:28;12.55;;;10.85;;
22160;SDS011;49035;48.812;11.762;2023-08-17T03:57:54;16.15;;;12.02;;
22160;SDS011;49035;48.812;11.762;2023-08-17T04:00:19;16.60;;;13.02;;
22160;SDS011;49035;48.812;11.762;2023-08-17T04:02:45;15.20;;;11.95;;
22160;SDS011;49035;48.812;11.762;2023-08-17T04:05:11;15.95;;;12.02;;
22160;SDS011;49035;48.812;11.762;2023-08-17T04:07:37;17.80;;;12.70;;
22160;SDS011;49035;48.812;11.762;2023-08-17T04:10:03;67.90;;;15.38;;
22160;SDS011;49035;48.812;11.762;2023-08-17T04:12:30;19.40;;;14.18;;
22160;SDS011;49035;48.812;11.762;2023-08-17T04:14:56;20.58;;;14.57;;
22160;SDS011;49035;48.812;11.762;2023-08-17T04:17:22;23.20;;;14.55;;
22160;SDS011;49035;48.812;11.762;2023-08-17T04:19:47;23.13;;;14.57;;
22160;SDS011;49035;48.812;11.762;2023-08-17T04:22:13;17.52;;;14.25;;
22160;SDS011;49035;48.812;11.762;2023-08-17T04:24:38;18.08;;;13.05;;
22160;SDS011;49035;48.812;11.762;2023-08-17T04:27:04;21.40;;;15.45;;
22160;SDS011;49035;48.812;11.762;2023-08-17T04:29:30;23.85;;;16.08;;
22160;SDS011;49035;48.812;11.762;2023-08-17T04:31:56;18.00;;;13.98;;
22160;SDS011;49035;48.812;11.762;2023-08-17T04:34:22;25.70;;;16.33;;
22160;SDS011;49035;48.812;11.762;2023-08-17T04:36:48;27.73;;;16.27;;
22160;SDS011;49035;48.812;11.762;2023-08-17T04:39:13;23.40;;;14.63;;
22160;SDS011;49035;48.812;11.762;2023-08-17T04:41:39;22.20;;;16.02;;
22160;SDS011;49035;48.812;11.762;2023-08-17T04:44:05;21.98;;;16.50;;
22160;SDS011;49035;48.812;11.762;2023-08-17T04:46:30;25.90;;;16.35;;
22160;SDS011;49035;48.812;11.762;2023-08-17T04:48:56;20.80;;;14.52;;
22160;SDS011;49035;48.812;11.762;2023-08-17T04:51:21;16.80;;;13.55;;
22160;SDS011;49035;48.812;11.762;2023-08-17T04:53:47;16.35;;;13.57;;
22160;SDS011;49035;48.812;11.762;2023-08-17T04:56:12;17.02;;;13.73;;
22160;SDS011;49035;48.812;11.762;2023-08-17T04:58:38;18.85;;;14.25;;
22160;SDS011;49035;48.812;11.762;2023-08-17T05:01:03;17.88;;;15.80;;
22160;SDS011;49035;48.812;11.762;2023-08-17T05:03:29;21.95;;;16.45;;
22160;SDS011;49035;48.812;11.762;2023-08-17T05:05:56;20.92;;;17.42;;
22160;SDS011;49035;48.812;11.762;2023-08-17T05:08:22;24.33;;;18.75;;
22160;SDS011;49035;48.812;11.762;2023-08-17T05:10:47;20.73;;;18.08;;
22160;SDS011;49035;48.812;11.762;2023-08-17T05:13:13;19.60;;;16.38;;
22160;SDS011;49035;48.812;11.762;2023-08-17T05:15:39;18.92;;;15.15;;
22160;SDS011;49035;48.812;11.762;2023-08-17T05:18:05;18.45;;;15.10;;
22160;SDS011;49035;48.812;11.762;2023-08-17T05:20:31;18.33;;;15.00;;
22160;SDS011;49035;48.812;11.762;2023-08-17T05:22:56;19.40;;;15.68;;
22160;SDS011;49035;48.812;11.762;2023-08-17T05:25:22;17.88;;;15.23;;
22160;SDS011;49035;48.812;11.762;2023-08-17T05:27:48;23.20;;;16.08;;
22160;SDS011;49035;48.812;11.762;2023-08-17T05:30:15;17.75;;;14.98;;
22160;SDS011;49035;48.812;11.762;2023-08-17T05:32:41;15.23;;;13.55;;
22160;SDS011;49035;48.812;11.762;2023-08-17T05:35:06;14.38;;;11.07;;
22160;SDS011;49035;48.812;11.762;2023-08-17T05:37:32;11.55;;;10.43;;
22160;SDS011;49035;48.812;11.762;2023-08-17T05:39:58;16.33;;;10.90;;
22160;SDS011;49035;48.812;11.762;2023-08-17T05:42:23;11.38;;;10.15;;
22160;SDS011;49035;48.812;11.762;2023-08-17T05:44:49;10.68;;;8.98;;
22160;SDS011;49035;48.812;11.762;2023-08-17T05:47:14;10.45;;;8.73;;
22160;SDS011;49035;48.812;11.762;2023-08-17T05:49:42;10.93;;;9.23;;
22160;SDS011;49035;48.812;11.762;2023-08-17T05:52:08;13.43;;;9.18;;
22160;SDS011;49035;48.812;11.762;2023-08-17T05:54:33;11.15;;;9.32;;
22160;SDS011;49035;48.812;11.762;2023-08-17T05:56:59;11.40;;;9.60;;
22160;SDS011;49035;48.812;11.762;2023-08-17T05:59:26;12.60;;;9.02;;
22160;SDS011;49035;48.812;11.762;2023-08-17T06:01:51;12.20;;;8.88;;
22160;SDS011;49035;48.812;11.762;2023-08-17T06:04:17;11.15;;;8.13;;
22160;SDS011;49035;48.812;11.762;2023-08-17T06:06:43;8.57;;;7.78;;
22160;SDS011;49035;48.812;11.762;2023-08-17T06:09:08;8.02;;;7.10;;
22160;SDS011;49035;48.812;11.762;2023-08-17T06:11:34;9.13;;;7.20;;
22160;SDS011;49035;48.812;11.762;2023-08-17T06:14:00;8.52;;;7.60;;
22160;SDS011;49035;48.812;11.762;2023-08-17T06:16:25;11.50;;;7.40;;
22160;SDS011;49035;48.812;11.762;2023-08-17T06:18:51;11.27;;;7.55;;
22160;SDS011;49035;48.812;11.762;2023-08-17T06:21:16;9.80;;;7.32;;
22160;SDS011;49035;48.812;11.762;2023-08-17T06:23:42;9.32;;;7.40;;
22160;SDS011;49035;48.812;11.762;2023-08-17T06:26:08;9.10;;;6.90;;
22160;SDS011;49035;48.812;11.762;2023-08-17T06:28:33;8.20;;;7.40;;
22160;SDS011;49035;48.812;11.762;2023-08-17T06:30:59;12.18;;;7.78;;
22160;SDS011;49035;48.812;11.762;2023-08-17T06:33:25;9.63;;;7.88;;
22160;SDS011;49035;48.812;11.762;2023-08-17T06:35:50;8.65;;;7.75;;
22160;SDS011;49035;48.812;11.762;2023-08-17T06:38:16;9.02;;;7.13;;
22160;SDS011;49035;48.812;11.762;2023-08-17T06:40:42;9.57;;;8.20;;
22160;SDS011;49035;48.812;11.762;2023-08-17T06:43:08;9.20;;;7.90;;
22160;SDS011;49035;48.812;11.762;2023-08-17T06:45:34;11.52;;;8.43;;
22160;SDS011;49035;48.812;11.762;2023-08-17T06:48:00;10.73;;;8.20;;
22160;SDS011;49035;48.812;11.762;2023-08-17T06:50:26;9.30;;;6.93;;
22160;SDS011;49035;48.812;11.762;2023-08-17T06:52:53;10.82;;;7.63;;
22160;SDS011;49035;48.812;11.762;2023-08-17T06:55:19;7.38;;;6.68;;
22160;SDS011;49035;48.812;11.762;2023-08-17T06:57:44;11.55;;;7.55;;
22160;SDS011;49035;48.812;11.762;2023-08-17T07:00:10;9.20;;;7.63;;
22160;SDS011;49035;48.812;11.762;2023-08-17T07:02:37;8.73;;;7.80;;
22160;SDS011;49035;48.812;11.762;2023-08-17T07:05:02;11.85;;;8.43;;
22160;SDS011;49035;48.812;11.762;2023-08-17T07:07:31;9.85;;;8.85;;
22160;SDS011;49035;48.812;11.762;2023-08-17T07:09:57;13.15;;;8.85;;
22160;SDS011;49035;48.812;11.762;2023-08-17T07:12:23;11.23;;;9.25;;
22160;SDS011;49035;48.812;11.762;2023-08-17T07:14:49;12.48;;;8.32;;
22160;SDS011;49035;48.812;11.762;2023-08-17T07:17:15;9.13;;;8.23;;
22160;SDS011;49035;48.812;11.762;2023-08-17T07:19:40;13.27;;;8.55;;
22160;SDS011;49035;48.812;11.762;2023-08-17T07:22:06;9.68;;;8.68;;
22160;SDS011;49035;48.812;11.762;2023-08-17T07:24:32;10.32;;;7.90;;
22160;SDS011;49035;48.812;11.762;2023-08-17T07:26:57;12.73;;;8.85;;
22160;SDS011;49035;48.812;11.762;2023-08-17T07:29:23;10.38;;;8.82;;
22160;SDS011;49035;48.812;11.762;2023-08-17T07:31:48;9.77;;;8.65;;
22160;SDS011;49035;48.812;11.762;2023-08-17T07:34:14;10.95;;;9.80;;
22160;SDS011;49035;48.812;11.762;2023-08-17T07:36:40;10.43;;;8.35;;
22160;SDS011;49035;48.812;11.762;2023-08-17T07:39:05;9.82;;;8.80;;
22160;SDS011;49035;48.812;11.762;2023-08-17T07:41:31;9.57;;;8.68;;
22160;SDS011;49035;48.812;11.762;2023-08-17T07:43:56;10.38;;;9.40;;
22160;SDS011;49035;48.812;11.762;2023-08-17T07:46:22;10.88;;;9.77;;
22160;SDS011;49035;48.812;11.762;2023-08-17T07:48:48;11.30;;;9.23;;
22160;SDS011;49035;48.812;11.762;2023-08-17T07:51:13;13.65;;;9.10;;
22160;SDS011;49035;48.812;11.762;2023-08-17T07:53:39;14.23;;;10.38;;
22160;SDS011;49035;48.812;11.762;2023-08-17T07:56:05;12.15;;;10.90;;
22160;SDS011;49035;48.812;11.762;2023-08-17T07:58:31;11.55;;;10.25;;
22160;SDS011;49035;48.812;11.762;2023-08-17T08:00:56;11.77;;;10.10;;
22160;SDS011;49035;48.812;11.762;2023-08-17T08:03:22;11.40;;;9.32;;
22160;SDS011;49035;48.812;11.762;2023-08-17T08:05:48;12.15;;;10.88;;
22160;SDS011;49035;48.812;11.762;2023-08-17T08:08:13;12.55;;;9.95;;
22160;SDS011;49035;48.812;11.762;2023-08-17T08:10:40;10.82;;;9.70;;
22160;SDS011;49035;48.812;11.762;2023-08-17T08:13:05;11.13;;;9.23;;
22160;SDS011;49035;48.812;11.762;2023-08-17T08:15:32;9.07;;;8.10;;
22160;SDS011;49035;48.812;11.762;2023-08-17T08:17:58;12.30;;;9.13;;
22160;SDS011;49035;48.812;11.762;2023-08-17T08:20:24;10.02;;;8.45;;
22160;SDS011;49035;48.812;11.762;2023-08-17T08:22:49;9.57;;;8.40;;
22160;SDS011;49035;48.812;11.762;2023-08-17T08:25:15;9.70;;;8.70;;
22160;SDS011;49035;48.812;11.762;2023-08-17T08:27:41;12.60;;;8.25;;
22160;SDS011;49035;48.812;11.762;2023-08-17T08:30:06;11.07;;;9.38;;
22160;SDS011;49035;48.812;11.762;2023-08-17T08:32:32;9.93;;;8.75;;
22160;SDS011;49035;48.812;11.762;2023-08-17T08:34:58;10.80;;;8.38;;
22160;SDS011;49035;48.812;11.762;2023-08-17T08:37:24;9.75;;;8.25;;
22160;SDS011;49035;48.812;11.762;2023-08-17T08:39:53;9.77;;;8.75;;
22160;SDS011;49035;48.812;11.762;2023-08-17T08:42:20;9.95;;;8.95;;
22160;SDS011;49035;48.812;11.762;2023-08-17T08:44:46;10.40;;;8.02;;
22160;SDS011;49035;48.812;11.762;2023-08-17T08:47:12;8.85;;;7.50;;
22160;SDS011;49035;48.812;11.762;2023-08-17T08:49:39;12.27;;;9.02;;
22160;SDS011;49035;48.812;11.762;2023-08-17T08:52:08;10.43;;;8.05;;
22160;SDS011;49035;48.812;11.762;2023-08-17T08:54:44;9.98;;;8.48;;
22160;SDS011;49035;48.812;11.762;2023-08-17T08:57:14;9.98;;;8.98;;
22160;SDS011;49035;48.812;11.762;2023-08-17T08:59:42;13.00;;;7.90;;
22160;SDS011;49035;48.812;11.762;2023-08-17T09:02:14;12.68;;;9.32;;
22160;SDS011;49035;48.812;11.762;2023-08-17T09:04:44;10.07;;;8.68;;
22160;SDS011;49035;48.812;11.762;2023-08-17T09:07:11;9.20;;;8.32;;
22160;SDS011;49035;48.812;11.762;2023-08-17T09:09:39;11.98;;;9.98;;
22160;SDS011;49035;48.812;11.762;2023-08-17T09:12:08;11.27;;;9.50;;
22160;SDS011;49035;48.812;11.762;2023-08-17T09:14:34;12.45;;;9.15;;
22160;SDS011;49035;48.812;11.762;2023-08-17T09:17:02;11.43;;;9.48;;
22160;SDS011;49035;48.812;11.762;2023-08-17T09:19:33;11.38;;;10.27;;
22160;SDS011;49035;48.812;11.762;2023-08-17T09:22:00;13.50;;;9.88;;
22160;SDS011;49035;48.812;11.762;2023-08-17T09:24:35;10.88;;;9.35;;
22160;SDS011;49035;48.812;11.762;2023-08-17T09:27:02;19.13;;;10.32;;
22160;SDS011;49035;48.812;11.762;2023-08-17T09:29:28;11.68;;;9.80;;
22160;SDS011;49035;48.812;11.762;2023-08-17T09:31:58;11.20;;;10.00;;
22160;SDS011;49035;48.812;11.762;2023-08-17T09:34:30;12.43;;;10.13;;
22160;SDS011;49035;48.812;11.762;2023-08-17T09:36:56;10.63;;;9.63;;
22160;SDS011;49035;48.812;11.762;2023-08-17T09:39:26;10.20;;;9.23;;
22160;SDS011;49035;48.812;11.762;2023-08-17T09:41:53;15.93;;;9.43;;
22160;SDS011;49035;48.812;11.762;2023-08-17T09:44:20;10.35;;;9.38;;
22160;SDS011;49035;48.812;11.762;2023-08-17T09:46:46;11.05;;;8.90;;
22160;SDS011;49035;48.812;11.762;2023-08-17T09:49:12;10.30;;;9.20;;
22160;SDS011;49035;48.812;11.762;2023-08-17T09:51:41;9.77;;;8.88;;
22160;SDS011;49035;48.812;11.762;2023-08-17T09:54:07;10.73;;;9.00;;
22160;SDS011;49035;48.812;11.762;2023-08-17T09:56:33;10.82;;;8.82;;
22160;SDS011;49035;48.812;11.762;2023-08-17T09:58:59;14.25;;;9.43;;
22160;SDS011;49035;48.812;11.762;2023-08-17T10:01:25;13.20;;;9.90;;
22160;SDS011;49035;48.812;11.762;2023-08-17T10:03:53;10.25;;;8.82;;
22160;SDS011;49035;48.812;11.762;2023-08-17T10:06:22;9.27;;;8.38;;
22160;SDS011;49035;48.812;11.762;2023-08-17T10:08:49;11.27;;;8.25;;
22160;SDS011;49035;48.812;11.762;2023-08-17T10:11:19;8.75;;;7.82;;
22160;SDS011;49035;48.812;11.762;2023-08-17T10:13:51;9.95;;;8.43;;
22160;SDS011;49035;48.812;11.762;2023-08-17T10:19:03;9.95;;;8.25;;
22160;SDS011;49035;48.812;11.762;2023-08-17T10:21:44;9.35;;;8.52;;
22160;SDS011;49035;48.812;11.762;2023-08-17T10:24:15;10.15;;;8.88;;
22160;SDS011;49035;48.812;11.762;2023-08-17T10:26:42;9.70;;;8.73;;
22160;SDS011;49035;48.812;11.762;2023-08-17T10:29:09;9.20;;;8.20;;
22160;SDS011;49035;48.812;11.762;2023-08-17T10:31:35;9.82;;;8.90;;
22160;SDS011;49035;48.812;11.762;2023-08-17T10:34:02;10.48;;;8.60;;
22160;SDS011;49035;48.812;11.762;2023-08-17T10:36:29;8.45;;;7.60;;
22160;SDS011;49035;48.812;11.762;2023-08-17T10:41:49;8.73;;;7.85;;
22160;SDS011;49035;48.812;11.762;2023-08-17T10:44:17;10.35;;;7.88;;
22160;SDS011;49035;48.812;11.762;2023-08-17T10:46:43;8.43;;;7.40;;
22160;SDS011;49035;48.812;11.762;2023-08-17T10:49:25;9.70;;;7.70;;
22160;SDS011;49035;48.812;11.762;2023-08-17T10:52:04;8.57;;;7.68;;
22160;SDS011;49035;48.812;11.762;2023-08-17T10:54:41;9.05;;;8.15;;
22160;SDS011;49035;48.812;11.762;2023-08-17T11:02:55;9.20;;;8.25;;
22160;SDS011;49035;48.812;11.762;2023-08-17T11:05:37;8.93;;;8.02;;
22160;SDS011;49035;48.812;11.762;2023-08-17T11:08:07;8.95;;;7.93;;
22160;SDS011;49035;48.812;11.762;2023-08-17T11:10:47;9.13;;;8.23;;
22160;SDS011;49035;48.812;11.762;2023-08-17T11:13:21;9.38;;;8.02;;
22160;SDS011;49035;48.812;11.762;2023-08-17T11:15:48;8.50;;;7.72;;
22160;SDS011;49035;48.812;11.762;2023-08-17T11:18:14;9.45;;;7.35;;
22160;SDS011;49035;48.812;11.762;2023-08-17T11:20:40;10.93;;;8.02;;
22160;SDS011;49035;48.812;11.762;2023-08-17T11:23:07;8.68;;;7.78;;
22160;SDS011;49035;48.812;11.762;2023-08-17T11:25:33;9.02;;;8.13;;
22160;SDS011;49035;48.812;11.762;2023-08-17T11:28:00;8.63;;;7.80;;
22160;SDS011;49035;48.812;11.762;2023-08-17T11:30:27;11.18;;;8.05;;
22160;SDS011;49035;48.812;11.762;2023-08-17T11:32:53;13.82;;;7.85;;
22160;SDS011;49035;48.812;11.762;2023-08-17T11:35:19;8.80;;;7.90;;
22160;SDS011;49035;48.812;11.762;2023-08-17T11:37:46;7.95;;;7.20;;
22160;SDS011;49035;48.812;11.762;2023-08-17T11:40:13;8.68;;;6.90;;
22160;SDS011;49035;48.812;11.762;2023-08-17T11:42:39;7.60;;;6.88;;
22160;SDS011;49035;48.812;11.762;2023-08-17T11:45:05;8.63;;;7.18;;
22160;SDS011;49035;48.812;11.762;2023-08-17T11:47:34;10.05;;;7.78;;
22160;SDS011;49035;48.812;11.762;2023-08-17T11:50:01;7.60;;;6.80;;
22160;SDS011;49035;48.812;11.762;2023-08-17T11:52:28;8.88;;;7.18;;
22160;SDS011;49035;48.812;11.762;2023-08-17T11:54:55;8.52;;;7.70;;
22160;SDS011;49035;48.812;11.762;2023-08-17T11:57:21;9.60;;;7.18;;
22160;SDS011;49035;48.812;11.762;2023-08-17T11:59:47;10.57;;;7.68;;
22160;SDS011;49035;48.812;11.762;2023-08-17T12:02:12;7.95;;;7.25;;
22160;SDS011;49035;48.812;11.762;2023-08-17T12:04:38;9.38;;;6.95;;
22160;SDS011;49035;48.812;11.762;2023-08-17T12:07:04;7.03;;;6.32;;
22160;SDS011;49035;48.812;11.762;2023-08-17T12:09:33;10.50;;;7.38;;
22160;SDS011;49035;48.812;11.762;2023-08-17T12:11:59;7.93;;;7.13;;
22160;SDS011;49035;48.812;11.762;2023-08-17T12:14:30;10.35;;;6.93;;
22160;SDS011;49035;48.812;11.762;2023-08-17T12:16:55;9.25;;;7.07;;
22160;SDS011;49035;48.812;11.762;2023-08-17T12:19:23;8.50;;;7.05;;
22160;SDS011;49035;48.812;11.762;2023-08-17T12:21:50;7.65;;;6.88;;
22160;SDS011;49035;48.812;11.762;2023-08-17T12:24:15;7.32;;;6.65;;
22160;SDS011;49035;48.812;11.762;2023-08-17T12:26:42;7.00;;;6.40;;
22160;SDS011;49035;48.812;11.762;2023-08-17T12:29:08;7.40;;;6.65;;
22160;SDS011;49035;48.812;11.762;2023-08-17T12:31:34;8.10;;;6.45;;
22160;SDS011;49035;48.812;11.762;2023-08-17T12:34:00;8.85;;;6.68;;
22160;SDS011;49035;48.812;11.762;2023-08-17T12:36:26;11.43;;;6.60;;
22160;SDS011;49035;48.812;11.762;2023-08-17T12:38:51;11.82;;;6.53;;
22160;SDS011;49035;48.812;11.762;2023-08-17T12:41:17;9.25;;;6.50;;
22160;SDS011;49035;48.812;11.762;2023-08-17T12:43:43;6.65;;;6.05;;
22160;SDS011;49035;48.812;11.762;2023-08-17T12:46:08;6.95;;;6.18;;
22160;SDS011;49035;48.812;11.762;2023-08-17T12:48:35;6.78;;;6.18;;
22160;SDS011;49035;48.812;11.762;2023-08-17T12:51:01;6.97;;;5.75;;
22160;SDS011;49035;48.812;11.762;2023-08-17T12:53:27;9.02;;;6.68;;
22160;SDS011;49035;48.812;11.762;2023-08-17T12:55:53;7.22;;;6.18;;
22160;SDS011;49035;48.812;11.762;2023-08-17T12:58:18;7.68;;;6.05;;
22160;SDS011;49035;48.812;11.762;2023-08-17T13:00:44;9.75;;;5.82;;
22160;SDS011;49035;48.812;11.762;2023-08-17T13:03:09;6.90;;;6.18;;
22160;SDS011;49035;48.812;11.762;2023-08-17T13:05:35;6.97;;;6.30;;
22160;SDS011;49035;48.812;11.762;2023-08-17T13:08:00;8.02;;;5.20;;
22160;SDS011;49035;48.812;11.762;2023-08-17T13:10:26;7.28;;;6.57;;
22160;SDS011;49035;48.812;11.762;2023-08-17T13:12:52;8.25;;;6.25;;
22160;SDS011;49035;48.812;11.762;2023-08-17T13:15:21;7.03;;;6.30;;
22160;SDS011;49035;48.812;11.762;2023-08-17T13:17:47;6.72;;;6.05;;
22160;SDS011;49035;48.812;11.762;2023-08-17T13:20:13;7.55;;;6.32;;
22160;SDS011;49035;48.812;11.762;2023-08-17T13:22:39;7.20;;;5.75;;
22160;SDS011;49035;48.812;11.762;2023-08-17T13:25:04;6.10;;;5.40;;
22160;SDS011;49035;48.812;11.762;2023-08-17T13:27:30;9.45;;;6.65;;
22160;SDS011;49035;48.812;11.762;2023-08-17T13:29:56;6.47;;;5.88;;
22160;SDS011;49035;48.812;11.762;2023-08-17T13:32:23;6.57;;;5.53;;
22160;SDS011;49035;48.812;11.762;2023-08-17T13:34:50;7.50;;;6.38;;
22160;SDS011;49035;48.812;11.762;2023-08-17T13:37:15;8.40;;;6.35;;
22160;SDS011;49035;48.812;11.762;2023-08-17T13:39:42;11.43;;;6.20;;
22160;SDS011;49035;48.812;11.762;2023-08-17T13:42:08;6.50;;;5.78;;
22160;SDS011;49035;48.812;11.762;2023-08-17T13:44:33;6.35;;;5.75;;
22160;SDS011;49035;48.812;11.762;2023-08-17T13:46:59;7.85;;;6.10;;
22160;SDS011;49035;48.812;11.762;2023-08-17T13:49:24;6.38;;;5.78;;
22160;SDS011;49035;48.812;11.762;2023-08-17T13:51:50;6.20;;;5.60;;
22160;SDS011;49035;48.812;11.762;2023-08-17T13:54:16;6.32;;;5.47;;
22160;SDS011;49035;48.812;11.762;2023-08-17T13:56:41;6.57;;;5.40;;
22160;SDS011;49035;48.812;11.762;2023-08-17T13:59:07;7.07;;;5.20;;
22160;SDS011;49035;48.812;11.762;2023-08-17T14:01:32;6.00;;;5.40;;
22160;SDS011;49035;48.812;11.762;2023-08-17T14:03:58;5.70;;;5.20;;
22160;SDS011;49035;48.812;11.762;2023-08-17T14:06:25;7.15;;;5.30;;
22160;SDS011;49035;48.812;11.762;2023-08-17T14:08:51;5.63;;;5.13;;
22160;SDS011;49035;48.812;11.762;2023-08-17T14:11:16;6.47;;;5.38;;
22160;SDS011;49035;48.812;11.762;2023-08-17T14:13:42;6.97;;;5.68;;
22160;SDS011;49035;48.812;11.762;2023-08-17T14:16:07;6.90;;;5.80;;
22160;SDS011;49035;48.812;11.762;2023-08-17T14:18:33;5.30;;;4.80;;
22160;SDS011;49035;48.812;11.762;2023-08-17T14:20:59;7.95;;;5.95;;
22160;SDS011;49035;48.812;11.762;2023-08-17T14:23:24;7.72;;;6.00;;
22160;SDS011;49035;48.812;11.762;2023-08-17T14:25:50;7.28;;;5.38;;
22160;SDS011;49035;48.812;11.762;2023-08-17T14:28:17;6.68;;;5.57;;
22160;SDS011;49035;48.812;11.762;2023-08-17T14:30:42;6.28;;;5.68;;
22160;SDS011;49035;48.812;11.762;2023-08-17T14:33:08;6.20;;;5.53;;